Terminal Aerodrome Forecast
Issued by NWS Memphis, TN

Home | Current Version | Previous Version | Text Only | Print | Product List | Glossary On
Versions: 1 2 3 4 5 6 7 8 9 10 11 12 13 14 15 16 17 18 19 20 21 22 23 24 25 26 27 28 29
000
FTUS44 KMEG 302328
TAFMEM
TAF
KMEM 302328Z 3100/3124 03006KT P6SM SCT060 BKN250
     FM310400 04006KT P6SM VCSH BKN060 OVC250
     FM311300 15007KT P6SM VCTS SCT050CB BKN120=

USA.gov is the U.S. government's official web portal to all federal, state and local government web resources and services.